sensor_id;sensor_type;location;lat;lon;timestamp;pressure;altitude;pressure_sealevel;temperature;humidity
25084;BME280;13075;55.682;37.564;2022-12-20T00:02:19;100822.03;;;0.20;100.00
25084;BME280;13075;55.682;37.564;2022-12-20T00:04:45;100810.72;;;0.18;100.00
25084;BME280;13075;55.682;37.564;2022-12-20T00:07:10;100812.13;;;0.24;100.00
25084;BME280;13075;55.682;37.564;2022-12-20T00:09:36;100811.41;;;0.34;100.00
25084;BME280;13075;55.682;37.564;2022-12-20T00:12:01;100824.56;;;0.47;100.00
25084;BME280;13075;55.682;37.564;2022-12-20T00:14:27;100802.44;;;0.24;100.00
25084;BME280;13075;55.682;37.564;2022-12-20T00:16:53;100804.75;;;0.16;100.00
25084;BME280;13075;55.682;37.564;2022-12-20T00:19:18;100796.75;;;0.18;100.00
25084;BME280;13075;55.682;37.564;2022-12-20T00:21:44;100802.84;;;0.18;100.00
25084;BME280;13075;55.682;37.564;2022-12-20T00:24:09;100796.00;;;0.16;100.00
25084;BME280;13075;55.682;37.564;2022-12-20T00:26:36;100812.25;;;0.35;100.00
25084;BME280;13075;55.682;37.564;2022-12-20T00:29:03;100814.13;;;0.20;100.00
25084;BME280;13075;55.682;37.564;2022-12-20T00:31:30;100798.97;;;0.24;100.00
25084;BME280;13075;55.682;37.564;2022-12-20T00:33:57;100791.50;;;0.18;100.00
25084;BME280;13075;55.682;37.564;2022-12-20T00:36:25;100788.00;;;0.05;100.00
25084;BME280;13075;55.682;37.564;2022-12-20T00:38:52;100792.09;;;0.09;100.00
25084;BME280;13075;55.682;37.564;2022-12-20T00:41:23;100785.44;;;-0.10;100.00
25084;BME280;13075;55.682;37.564;2022-12-20T00:43:50;100776.63;;;-0.09;100.00
25084;BME280;13075;55.682;37.564;2022-12-20T00:46:19;100767.75;;;-0.20;100.00
25084;BME280;13075;55.682;37.564;2022-12-20T00:48:45;100769.28;;;-0.30;100.00
25084;BME280;13075;55.682;37.564;2022-12-20T00:51:14;100772.91;;;-0.19;100.00
25084;BME280;13075;55.682;37.564;2022-12-20T00:53:40;100764.19;;;-0.07;100.00
25084;BME280;13075;55.682;37.564;2022-12-20T00:56:07;100768.53;;;-0.06;100.00
25084;BME280;13075;55.682;37.564;2022-12-20T00:58:35;100756.72;;;-0.13;100.00
25084;BME280;13075;55.682;37.564;2022-12-20T01:01:03;100743.19;;;-0.33;100.00
25084;BME280;13075;55.682;37.564;2022-12-20T01:03:29;100736.47;;;-0.37;100.00
25084;BME280;13075;55.682;37.564;2022-12-20T01:05:56;100723.34;;;-0.37;100.00
25084;BME280;13075;55.682;37.564;2022-12-20T01:08:24;100727.16;;;-0.29;100.00
25084;BME280;13075;55.682;37.564;2022-12-20T01:11:00;100755.66;;;-0.10;100.00
25084;BME280;13075;55.682;37.564;2022-12-20T01:13:27;100744.19;;;-0.22;100.00
25084;BME280;13075;55.682;37.564;2022-12-20T01:15:53;100720.81;;;-0.39;100.00
25084;BME280;13075;55.682;37.564;2022-12-20T01:18:18;100726.28;;;-0.29;100.00
25084;BME280;13075;55.682;37.564;2022-12-20T01:20:44;100733.63;;;-0.47;100.00
25084;BME280;13075;55.682;37.564;2022-12-20T01:23:10;100716.47;;;-0.52;100.00
25084;BME280;13075;55.682;37.564;2022-12-20T01:25:35;100726.16;;;-0.40;100.00
25084;BME280;13075;55.682;37.564;2022-12-20T01:28:01;100722.22;;;-0.60;100.00
25084;BME280;13075;55.682;37.564;2022-12-20T01:30:27;100724.50;;;-0.41;100.00
25084;BME280;13075;55.682;37.564;2022-12-20T01:32:52;100722.78;;;-0.42;100.00
25084;BME280;13075;55.682;37.564;2022-12-20T01:35:18;100718.72;;;-0.34;100.00
25084;BME280;13075;55.682;37.564;2022-12-20T01:37:43;100721.28;;;-0.46;100.00
25084;BME280;13075;55.682;37.564;2022-12-20T01:40:09;100713.22;;;-0.31;100.00
25084;BME280;13075;55.682;37.564;2022-12-20T01:42:36;100710.84;;;-0.34;100.00
25084;BME280;13075;55.682;37.564;2022-12-20T01:45:06;100713.03;;;-0.40;100.00
25084;BME280;13075;55.682;37.564;2022-12-20T01:47:33;100713.66;;;-0.37;100.00
25084;BME280;13075;55.682;37.564;2022-12-20T01:50:02;100713.09;;;-0.54;100.00
25084;BME280;13075;55.682;37.564;2022-12-20T01:52:40;100712.59;;;-0.47;100.00
25084;BME280;13075;55.682;37.564;2022-12-20T01:55:12;100703.13;;;-0.49;100.00
25084;BME280;13075;55.682;37.564;2022-12-20T01:57:45;100714.16;;;-0.57;100.00
25084;BME280;13075;55.682;37.564;2022-12-20T02:00:13;100721.19;;;-0.57;100.00
25084;BME280;13075;55.682;37.564;2022-12-20T02:02:40;100712.88;;;-0.51;100.00
25084;BME280;13075;55.682;37.564;2022-12-20T02:05:07;100716.78;;;-0.57;100.00
25084;BME280;13075;55.682;37.564;2022-12-20T02:07:58;100695.81;;;-0.71;100.00
25084;BME280;13075;55.682;37.564;2022-12-20T02:10:30;100694.72;;;-0.54;100.00
25084;BME280;13075;55.682;37.564;2022-12-20T02:13:06;100690.03;;;-0.64;100.00
25084;BME280;13075;55.682;37.564;2022-12-20T02:15:46;100691.34;;;-0.83;100.00
25084;BME280;13075;55.682;37.564;2022-12-20T02:18:36;100696.66;;;-0.97;100.00
25084;BME280;13075;55.682;37.564;2022-12-20T02:21:20;100692.13;;;-0.95;100.00
25084;BME280;13075;55.682;37.564;2022-12-20T02:29:22;100682.25;;;-1.18;100.00
25084;BME280;13075;55.682;37.564;2022-12-20T02:34:22;100664.38;;;-1.26;100.00
25084;BME280;13075;55.682;37.564;2022-12-20T02:36:50;100663.56;;;-1.27;100.00
25084;BME280;13075;55.682;37.564;2022-12-20T02:39:15;100656.25;;;-1.36;100.00
25084;BME280;13075;55.682;37.564;2022-12-20T02:42:23;100657.34;;;-1.26;100.00
25084;BME280;13075;55.682;37.564;2022-12-20T02:44:56;100655.69;;;-1.27;100.00
25084;BME280;13075;55.682;37.564;2022-12-20T02:50:24;100648.19;;;-1.33;100.00
25084;BME280;13075;55.682;37.564;2022-12-20T02:52:51;100637.16;;;-1.38;100.00
25084;BME280;13075;55.682;37.564;2022-12-20T02:55:19;100640.69;;;-1.39;100.00
25084;BME280;13075;55.682;37.564;2022-12-20T02:57:57;100636.41;;;-1.40;100.00
25084;BME280;13075;55.682;37.564;2022-12-20T03:00:23;100624.88;;;-1.51;100.00
25084;BME280;13075;55.682;37.564;2022-12-20T03:02:50;100623.84;;;-1.49;100.00
25084;BME280;13075;55.682;37.564;2022-12-20T03:05:43;100616.66;;;-1.59;100.00
25084;BME280;13075;55.682;37.564;2022-12-20T03:08:09;100610.66;;;-1.61;100.00
25084;BME280;13075;55.682;37.564;2022-12-20T03:10:36;100620.13;;;-1.73;100.00
25084;BME280;13075;55.682;37.564;2022-12-20T03:13:02;100614.91;;;-1.73;100.00
25084;BME280;13075;55.682;37.564;2022-12-20T03:15:30;100604.72;;;-1.92;100.00
25084;BME280;13075;55.682;37.564;2022-12-20T03:17:58;100596.94;;;-1.93;100.00
25084;BME280;13075;55.682;37.564;2022-12-20T03:20:24;100584.69;;;-1.93;100.00
25084;BME280;13075;55.682;37.564;2022-12-20T03:22:50;100592.72;;;-1.96;100.00
25084;BME280;13075;55.682;37.564;2022-12-20T03:25:16;100583.75;;;-1.92;100.00
25084;BME280;13075;55.682;37.564;2022-12-20T03:27:41;100582.16;;;-1.94;100.00
25084;BME280;13075;55.682;37.564;2022-12-20T03:30:08;100561.97;;;-2.20;100.00
25084;BME280;13075;55.682;37.564;2022-12-20T03:32:36;100562.81;;;-2.20;100.00
25084;BME280;13075;55.682;37.564;2022-12-20T03:35:02;100558.78;;;-2.25;100.00
25084;BME280;13075;55.682;37.564;2022-12-20T03:37:33;100554.56;;;-2.14;100.00
25084;BME280;13075;55.682;37.564;2022-12-20T03:40:02;100555.69;;;-2.18;100.00
25084;BME280;13075;55.682;37.564;2022-12-20T03:42:28;100554.66;;;-2.29;100.00
25084;BME280;13075;55.682;37.564;2022-12-20T03:44:54;100549.53;;;-2.31;100.00
25084;BME280;13075;55.682;37.564;2022-12-20T03:47:22;100545.31;;;-2.33;100.00
25084;BME280;13075;55.682;37.564;2022-12-20T03:49:47;100542.69;;;-2.47;100.00
25084;BME280;13075;55.682;37.564;2022-12-20T03:52:13;100533.72;;;-2.43;100.00
25084;BME280;13075;55.682;37.564;2022-12-20T03:54:40;100529.94;;;-2.39;100.00
25084;BME280;13075;55.682;37.564;2022-12-20T03:57:12;100530.06;;;-2.69;100.00
25084;BME280;13075;55.682;37.564;2022-12-20T03:59:39;100512.06;;;-2.75;100.00
25084;BME280;13075;55.682;37.564;2022-12-20T04:02:07;100511.22;;;-2.76;100.00
25084;BME280;13075;55.682;37.564;2022-12-20T04:04:33;100512.47;;;-2.67;100.00
25084;BME280;13075;55.682;37.564;2022-12-20T04:06:59;100503.00;;;-2.70;100.00
25084;BME280;13075;55.682;37.564;2022-12-20T04:09:25;100505.16;;;-2.62;100.00
25084;BME280;13075;55.682;37.564;2022-12-20T04:11:56;100494.59;;;-2.75;100.00
25084;BME280;13075;55.682;37.564;2022-12-20T04:14:22;100479.63;;;-2.73;100.00
25084;BME280;13075;55.682;37.564;2022-12-20T04:16:48;100472.53;;;-2.71;100.00
25084;BME280;13075;55.682;37.564;2022-12-20T04:19:14;100473.28;;;-2.69;100.00
25084;BME280;13075;55.682;37.564;2022-12-20T04:21:43;100482.53;;;-2.77;100.00
25084;BME280;13075;55.682;37.564;2022-12-20T04:24:10;100468.78;;;-2.67;100.00
25084;BME280;13075;55.682;37.564;2022-12-20T04:26:53;100477.38;;;-2.65;100.00
25084;BME280;13075;55.682;37.564;2022-12-20T04:29:19;100467.59;;;-2.61;100.00
25084;BME280;13075;55.682;37.564;2022-12-20T04:31:45;100480.50;;;-2.58;100.00
25084;BME280;13075;55.682;37.564;2022-12-20T04:34:11;100476.94;;;-2.43;100.00
25084;BME280;13075;55.682;37.564;2022-12-20T04:36:37;100483.94;;;-2.43;100.00
25084;BME280;13075;55.682;37.564;2022-12-20T04:39:07;100482.44;;;-2.47;100.00
25084;BME280;13075;55.682;37.564;2022-12-20T04:41:43;100463.09;;;-2.59;100.00
25084;BME280;13075;55.682;37.564;2022-12-20T04:44:12;100465.03;;;-2.48;100.00
25084;BME280;13075;55.682;37.564;2022-12-20T04:46:37;100480.50;;;-2.58;100.00
25084;BME280;13075;55.682;37.564;2022-12-20T04:49:06;100478.44;;;-2.53;100.00
25084;BME280;13075;55.682;37.564;2022-12-20T04:51:35;100465.16;;;-2.64;100.00
25084;BME280;13075;55.682;37.564;2022-12-20T04:54:01;100463.56;;;-2.67;100.00
25084;BME280;13075;55.682;37.564;2022-12-20T04:56:41;100459.53;;;-2.72;100.00
25084;BME280;13075;55.682;37.564;2022-12-20T04:59:09;100454.47;;;-2.75;100.00
25084;BME280;13075;55.682;37.564;2022-12-20T05:01:39;100456.66;;;-2.82;100.00
25084;BME280;13075;55.682;37.564;2022-12-20T05:04:04;100469.81;;;-2.69;100.00
25084;BME280;13075;55.682;37.564;2022-12-20T05:06:34;100463.75;;;-2.70;100.00
25084;BME280;13075;55.682;37.564;2022-12-20T05:09:00;100461.22;;;-2.71;100.00
25084;BME280;13075;55.682;37.564;2022-12-20T05:11:26;100460.75;;;-2.78;100.00
25084;BME280;13075;55.682;37.564;2022-12-20T05:13:51;100458.97;;;-2.77;100.00
25084;BME280;13075;55.682;37.564;2022-12-20T05:16:19;100453.38;;;-2.99;100.00
25084;BME280;13075;55.682;37.564;2022-12-20T05:18:45;100450.38;;;-3.07;100.00
25084;BME280;13075;55.682;37.564;2022-12-20T05:21:11;100442.31;;;-2.90;100.00
25084;BME280;13075;55.682;37.564;2022-12-20T05:23:55;100443.91;;;-2.88;100.00
25084;BME280;13075;55.682;37.564;2022-12-20T05:27:05;100439.88;;;-2.93;100.00
25084;BME280;13075;55.682;37.564;2022-12-20T05:29:31;100449.41;;;-2.78;100.00
25084;BME280;13075;55.682;37.564;2022-12-20T05:31:56;100444.19;;;-2.78;100.00
25084;BME280;13075;55.682;37.564;2022-12-20T05:34:23;100431.28;;;-2.95;100.00
25084;BME280;13075;55.682;37.564;2022-12-20T05:36:52;100435.94;;;-2.86;100.00
25084;BME280;13075;55.682;37.564;2022-12-20T05:39:19;100428.88;;;-2.84;100.00
25084;BME280;13075;55.682;37.564;2022-12-20T05:41:46;100417.06;;;-2.91;100.00
25084;BME280;13075;55.682;37.564;2022-12-20T05:44:12;100415.56;;;-2.81;100.00
25084;BME280;13075;55.682;37.564;2022-12-20T05:46:41;100418.47;;;-2.72;100.00
25084;BME280;13075;55.682;37.564;2022-12-20T05:49:12;100415.13;;;-2.88;100.00
25084;BME280;13075;55.682;37.564;2022-12-20T05:51:37;100396.72;;;-3.00;100.00
25084;BME280;13075;55.682;37.564;2022-12-20T05:54:22;100395.69;;;-2.98;100.00
25084;BME280;13075;55.682;37.564;2022-12-20T05:57:12;100377.72;;;-2.90;100.00
25084;BME280;13075;55.682;37.564;2022-12-20T05:59:41;100386.97;;;-2.84;100.00
25084;BME280;13075;55.682;37.564;2022-12-20T06:02:16;100373.03;;;-2.85;100.00
25084;BME280;13075;55.682;37.564;2022-12-20T06:04:42;100375.28;;;-2.93;100.00
25084;BME280;13075;55.682;37.564;2022-12-20T06:07:14;100369.03;;;-3.04;100.00
25084;BME280;13075;55.682;37.564;2022-12-20T06:09:40;100377.06;;;-2.93;100.00
25084;BME280;13075;55.682;37.564;2022-12-20T06:12:10;100369.31;;;-3.09;100.00
25084;BME280;13075;55.682;37.564;2022-12-20T06:14:38;100379.97;;;-2.98;100.00
25084;BME280;13075;55.682;37.564;2022-12-20T06:17:03;100377.72;;;-2.90;100.00
25084;BME280;13075;55.682;37.564;2022-12-20T06:19:30;100359.69;;;-2.94;100.00
25084;BME280;13075;55.682;37.564;2022-12-20T06:21:57;100366.69;;;-3.09;100.00
25084;BME280;13075;55.682;37.564;2022-12-20T06:24:36;100376.22;;;-2.94;100.00
25084;BME280;13075;55.682;37.564;2022-12-20T06:27:02;100374.81;;;-2.71;100.00
25084;BME280;13075;55.682;37.564;2022-12-20T06:29:28;100362.03;;;-2.90;100.00
25084;BME280;13075;55.682;37.564;2022-12-20T06:32:02;100368.91;;;-2.89;100.00
25084;BME280;13075;55.682;37.564;2022-12-20T06:34:30;100361.84;;;-2.87;100.00
25084;BME280;13075;55.682;37.564;2022-12-20T06:36:56;100361.06;;;-2.75;100.00
25084;BME280;13075;55.682;37.564;2022-12-20T06:39:25;100350.78;;;-2.78;100.00
25084;BME280;13075;55.682;37.564;2022-12-20T06:42:09;100346.72;;;-3.10;100.00
25084;BME280;13075;55.682;37.564;2022-12-20T06:44:37;100347.91;;;-2.87;100.00
25084;BME280;13075;55.682;37.564;2022-12-20T06:47:03;100330.97;;;-2.96;100.00
25084;BME280;13075;55.682;37.564;2022-12-20T06:49:29;100333.97;;;-2.88;100.00
25084;BME280;13075;55.682;37.564;2022-12-20T06:51:55;100314.66;;;-2.99;100.00
25084;BME280;13075;55.682;37.564;2022-12-20T06:54:27;100324.16;;;-2.84;100.00
25084;BME280;13075;55.682;37.564;2022-12-20T06:56:53;100332.69;;;-2.68;100.00
25084;BME280;13075;55.682;37.564;2022-12-20T06:59:18;100317.69;;;-2.79;100.00
25084;BME280;13075;55.682;37.564;2022-12-20T07:01:44;100293.31;;;-2.93;100.00
25084;BME280;13075;55.682;37.564;2022-12-20T07:04:09;100292.19;;;-2.89;100.00
25084;BME280;13075;55.682;37.564;2022-12-20T07:06:35;100288.69;;;-2.76;100.00
25084;BME280;13075;55.682;37.564;2022-12-20T07:09:01;100286.97;;;-2.63;100.00
25084;BME280;13075;55.682;37.564;2022-12-20T07:11:27;100272.88;;;-2.74;100.00
25084;BME280;13075;55.682;37.564;2022-12-20T07:13:56;100269.53;;;-2.76;100.00
25084;BME280;13075;55.682;37.564;2022-12-20T07:16:22;100261.09;;;-2.81;100.00
25084;BME280;13075;55.682;37.564;2022-12-20T07:18:52;100257.56;;;-2.80;100.00
25084;BME280;13075;55.682;37.564;2022-12-20T07:21:18;100259.06;;;-2.76;100.00
25084;BME280;13075;55.682;37.564;2022-12-20T07:23:45;100254.56;;;-2.74;100.00
25084;BME280;13075;55.682;37.564;2022-12-20T07:26:11;100251.91;;;-2.87;100.00
25084;BME280;13075;55.682;37.564;2022-12-20T07:28:38;100238.75;;;-2.99;100.00
25084;BME280;13075;55.682;37.564;2022-12-20T07:31:03;100234.59;;;-2.89;100.00
25084;BME280;13075;55.682;37.564;2022-12-20T07:33:31;100234.13;;;-2.96;100.00
25084;BME280;13075;55.682;37.564;2022-12-20T07:36:02;100221.22;;;-2.85;100.00
25084;BME280;13075;55.682;37.564;2022-12-20T07:38:27;100220.84;;;-3.20;100.00
25084;BME280;13075;55.682;37.564;2022-12-20T07:40:54;100209.63;;;-3.22;100.00
25084;BME280;13075;55.682;37.564;2022-12-20T07:43:19;100215.44;;;-2.90;100.00
25084;BME280;13075;55.682;37.564;2022-12-20T07:45:45;100206.44;;;-2.86;100.00
25084;BME280;13075;55.682;37.564;2022-12-20T07:48:12;100196.50;;;-2.81;100.00
25084;BME280;13075;55.682;37.564;2022-12-20T07:50:39;100176.09;;;-2.76;100.00
25084;BME280;13075;55.682;37.564;2022-12-20T07:53:06;100162.88;;;-2.87;100.00
25084;BME280;13075;55.682;37.564;2022-12-20T07:55:35;100179.22;;;-2.83;100.00
25084;BME280;13075;55.682;37.564;2022-12-20T07:58:03;100172.53;;;-2.87;100.00
25084;BME280;13075;55.682;37.564;2022-12-20T08:00:31;100149.34;;;-2.93;100.00
25084;BME280;13075;55.682;37.564;2022-12-20T08:03:06;100146.72;;;-2.93;100.00
25084;BME280;13075;55.682;37.564;2022-12-20T08:05:34;100134.53;;;-3.07;100.00
25084;BME280;13075;55.682;37.564;2022-12-20T08:08:01;100133.91;;;-3.10;100.00
25084;BME280;13075;55.682;37.564;2022-12-20T08:10:28;100132.56;;;-3.03;100.00
25084;BME280;13075;55.682;37.564;2022-12-20T08:12:55;100115.28;;;-3.06;100.00
25084;BME280;13075;55.682;37.564;2022-12-20T08:15:22;100123.44;;;-3.10;100.00
25084;BME280;13075;55.682;37.564;2022-12-20T08:17:48;100116.44;;;-3.10;100.00
25084;BME280;13075;55.682;37.564;2022-12-20T08:20:14;100120.03;;;-2.98;100.00
25084;BME280;13075;55.682;37.564;2022-12-20T08:22:40;100123.81;;;-2.90;100.00
25084;BME280;13075;55.682;37.564;2022-12-20T08:25:06;100120.84;;;-3.10;100.00
25084;BME280;13075;55.682;37.564;2022-12-20T08:27:32;100121.53;;;-2.94;100.00
25084;BME280;13075;55.682;37.564;2022-12-20T08:29:58;100131.47;;;-2.87;100.00
25084;BME280;13075;55.682;37.564;2022-12-20T08:32:24;100110.78;;;-3.04;100.00
25084;BME280;13075;55.682;37.564;2022-12-20T08:34:51;100109.09;;;-3.18;100.00
25084;BME280;13075;55.682;37.564;2022-12-20T08:37:18;100106.47;;;-3.18;100.00
25084;BME280;13075;55.682;37.564;2022-12-20T08:39:44;100103.31;;;-3.23;100.00
25084;BME280;13075;55.682;37.564;2022-12-20T08:42:10;100105.09;;;-3.23;100.00
25084;BME280;13075;55.682;37.564;2022-12-20T08:44:35;100098.66;;;-3.32;100.00
25084;BME280;13075;55.682;37.564;2022-12-20T08:47:01;100088.38;;;-3.21;100.00
25084;BME280;13075;55.682;37.564;2022-12-20T08:49:27;100103.38;;;-3.10;100.00
25084;BME280;13075;55.682;37.564;2022-12-20T08:51:52;100099.88;;;-3.23;100.00
25084;BME280;13075;55.682;37.564;2022-12-20T08:54:18;100078.75;;;-3.20;100.00
25084;BME280;13075;55.682;37.564;2022-12-20T08:56:43;100081.06;;;-3.16;100.00
25084;BME280;13075;55.682;37.564;2022-12-20T08:59:09;100078.09;;;-3.24;100.00
25084;BME280;13075;55.682;37.564;2022-12-20T09:01:34;100073.38;;;-3.31;100.00
25084;BME280;13075;55.682;37.564;2022-12-20T09:04:00;100071.44;;;-3.15;100.00
25084;BME280;13075;55.682;37.564;2022-12-20T09:06:26;100071.47;;;-3.29;100.00
25084;BME280;13075;55.682;37.564;2022-12-20T09:08:51;100065.44;;;-3.17;100.00
25084;BME280;13075;55.682;37.564;2022-12-20T09:11:19;100046.06;;;-3.27;100.00
25084;BME280;13075;55.682;37.564;2022-12-20T09:13:47;100048.81;;;-3.16;100.00
25084;BME280;13075;55.682;37.564;2022-12-20T09:16:15;100049.34;;;-3.11;100.00
25084;BME280;13075;55.682;37.564;2022-12-20T09:18:41;100050.00;;;-3.07;100.00
25084;BME280;13075;55.682;37.564;2022-12-20T09:21:08;100043.91;;;-3.08;100.00
25084;BME280;13075;55.682;37.564;2022-12-20T09:23:35;100040.25;;;-3.05;100.00
25084;BME280;13075;55.682;37.564;2022-12-20T09:26:06;100019.00;;;-3.01;100.00
25084;BME280;13075;55.682;37.564;2022-12-20T09:28:32;100019.44;;;-2.94;100.00
25084;BME280;13075;55.682;37.564;2022-12-20T09:31:03;100021.75;;;-2.90;100.00
25084;BME280;13075;55.682;37.564;2022-12-20T09:33:30;100021.31;;;-2.96;100.00
25084;BME280;13075;55.682;37.564;2022-12-20T09:35:57;100017.44;;;-2.91;100.00
25084;BME280;13075;55.682;37.564;2022-12-20T09:38:24;100000.25;;;-3.20;100.00
25084;BME280;13075;55.682;37.564;2022-12-20T09:40:53;99999.22;;;-3.05;100.00
25084;BME280;13075;55.682;37.564;2022-12-20T09:43:20;100000.03;;;-3.04;100.00
25084;BME280;13075;55.682;37.564;2022-12-20T09:45:48;99981.13;;;-2.95;100.00
25084;BME280;13075;55.682;37.564;2022-12-20T09:48:17;99987.50;;;-2.87;100.00
25084;BME280;13075;55.682;37.564;2022-12-20T09:54:14;99977.84;;;-2.86;100.00
25084;BME280;13075;55.682;37.564;2022-12-20T09:56:46;99977.13;;;-2.76;100.00
25084;BME280;13075;55.682;37.564;2022-12-20T09:59:18;99964.78;;;-2.74;100.00
25084;BME280;13075;55.682;37.564;2022-12-20T10:01:45;99968.34;;;-2.75;100.00
25084;BME280;13075;55.682;37.564;2022-12-20T10:04:23;99963.75;;;-2.71;100.00
25084;BME280;13075;55.682;37.564;2022-12-20T10:23:32;99910.22;;;-2.80;100.00
25084;BME280;13075;55.682;37.564;2022-12-20T10:25:58;99897.34;;;-2.83;100.00
25084;BME280;13075;55.682;37.564;2022-12-20T10:28:29;99903.63;;;-2.73;100.00
25084;BME280;13075;55.682;37.564;2022-12-20T10:31:10;99891.53;;;-2.63;100.00
25084;BME280;13075;55.682;37.564;2022-12-20T10:33:37;99899.34;;;-2.99;100.00
25084;BME280;13075;55.682;37.564;2022-12-20T10:36:26;99892.44;;;-2.87;100.00
25084;BME280;13075;55.682;37.564;2022-12-20T10:38:54;99897.88;;;-2.78;100.00
25084;BME280;13075;55.682;37.564;2022-12-20T10:41:27;99892.97;;;-2.95;100.00
25084;BME280;13075;55.682;37.564;2022-12-20T10:46:20;99891.41;;;-2.97;100.00
25084;BME280;13075;55.682;37.564;2022-12-20T10:48:48;99890.03;;;-2.90;100.00
25084;BME280;13075;55.682;37.564;2022-12-20T10:51:15;99889.09;;;-2.77;100.00
25084;BME280;13075;55.682;37.564;2022-12-20T10:53:58;99882.38;;;-2.93;100.00
25084;BME280;13075;55.682;37.564;2022-12-20T10:56:29;99889.28;;;-2.80;100.00
25084;BME280;13075;55.682;37.564;2022-12-20T10:59:01;99878.38;;;-2.61;100.00
25084;BME280;13075;55.682;37.564;2022-12-20T11:01:34;99882.03;;;-2.64;100.00
25084;BME280;13075;55.682;37.564;2022-12-20T11:04:05;99872.44;;;-2.52;100.00
25084;BME280;13075;55.682;37.564;2022-12-20T11:12:16;99856.75;;;-2.52;100.00
25084;BME280;13075;55.682;37.564;2022-12-20T11:14:43;99861.63;;;-2.35;100.00
25084;BME280;13075;55.682;37.564;2022-12-20T11:17:20;99854.25;;;-2.30;100.00
25084;BME280;13075;55.682;37.564;2022-12-20T11:22:55;99855.91;;;-2.05;100.00
25084;BME280;13075;55.682;37.564;2022-12-20T11:25:33;99842.47;;;-2.01;100.00
25084;BME280;13075;55.682;37.564;2022-12-20T11:28:24;99847.72;;;-2.01;100.00
25084;BME280;13075;55.682;37.564;2022-12-20T11:36:17;99847.63;;;-1.99;100.00
25084;BME280;13075;55.682;37.564;2022-12-20T11:55:56;99831.78;;;-2.21;100.00
25084;BME280;13075;55.682;37.564;2022-12-20T12:01:16;99833.34;;;-2.66;100.00
25084;BME280;13075;55.682;37.564;2022-12-20T12:06:25;99834.50;;;-2.70;100.00
25084;BME280;13075;55.682;37.564;2022-12-20T12:09:07;99828.25;;;-2.80;100.00
25084;BME280;13075;55.682;37.564;2022-12-20T12:12:00;99823.44;;;-2.86;100.00
25084;BME280;13075;55.682;37.564;2022-12-20T12:17:28;99829.69;;;-3.12;100.00
25084;BME280;13075;55.682;37.564;2022-12-20T12:20:03;99822.47;;;-3.34;100.00
25084;BME280;13075;55.682;37.564;2022-12-20T12:22:34;99823.72;;;-3.40;100.00
25084;BME280;13075;55.682;37.564;2022-12-20T12:25:03;99831.16;;;-3.46;100.00
25084;BME280;13075;55.682;37.564;2022-12-20T12:27:33;99834.31;;;-3.54;100.00
25084;BME280;13075;55.682;37.564;2022-12-20T12:29:59;99830.31;;;-3.59;100.00
25084;BME280;13075;55.682;37.564;2022-12-20T12:32:35;99839.81;;;-3.58;100.00
25084;BME280;13075;55.682;37.564;2022-12-20T12:35:16;99845.56;;;-3.66;100.00
25084;BME280;13075;55.682;37.564;2022-12-20T12:38:25;99833.16;;;-3.62;100.00
25084;BME280;13075;55.682;37.564;2022-12-20T12:43:53;99834.50;;;-3.82;100.00
25084;BME280;13075;55.682;37.564;2022-12-20T12:46:33;99835.63;;;-3.73;100.00
25084;BME280;13075;55.682;37.564;2022-12-20T12:49:15;99837.72;;;-3.66;100.00
25084;BME280;13075;55.682;37.564;2022-12-20T12:51:53;99837.94;;;-3.69;100.00
25084;BME280;13075;55.682;37.564;2022-12-20T12:54:23;99834.72;;;-3.60;100.00
25084;BME280;13075;55.682;37.564;2022-12-20T12:56:51;99843.91;;;-3.67;100.00
25084;BME280;13075;55.682;37.564;2022-12-20T12:59:39;99834.06;;;-3.63;100.00
25084;BME280;13075;55.682;37.564;2022-12-20T13:09:58;99819.94;;;-3.73;100.00
25084;BME280;13075;55.682;37.564;2022-12-20T13:17:59;99820.25;;;-3.40;100.00
25084;BME280;13075;55.682;37.564;2022-12-20T13:20:28;99824.56;;;-3.39;100.00
25084;BME280;13075;55.682;37.564;2022-12-20T13:23:14;99820.59;;;-3.45;100.00
25084;BME280;13075;55.682;37.564;2022-12-20T13:25:50;99822.69;;;-3.37;100.00
25084;BME280;13075;55.682;37.564;2022-12-20T13:33:45;99820.56;;;-3.20;100.00
25084;BME280;13075;55.682;37.564;2022-12-20T13:38:50;99817.22;;;-3.22;100.00
25084;BME280;13075;55.682;37.564;2022-12-20T13:41:39;99821.81;;;-3.00;100.00
25084;BME280;13075;55.682;37.564;2022-12-20T13:49:18;99809.03;;;-3.17;100.00
25084;BME280;13075;55.682;37.564;2022-12-20T13:51:47;99833.75;;;-3.08;100.00
25084;BME280;13075;55.682;37.564;2022-12-20T13:54:17;99815.03;;;-3.15;100.00
25084;BME280;13075;55.682;37.564;2022-12-20T13:56:47;99812.66;;;-3.31;100.00
25084;BME280;13075;55.682;37.564;2022-12-20T13:59:25;99821.06;;;-3.15;100.00
25084;BME280;13075;55.682;37.564;2022-12-20T14:01:54;99815.03;;;-3.15;100.00
25084;BME280;13075;55.682;37.564;2022-12-20T14:04:20;99825.03;;;-2.96;100.00
25084;BME280;13075;55.682;37.564;2022-12-20T14:06:58;99817.00;;;-3.06;100.00
25084;BME280;13075;55.682;37.564;2022-12-20T14:09:35;99819.28;;;-3.01;100.00
25084;BME280;13075;55.682;37.564;2022-12-20T14:12:12;99814.34;;;-2.93;100.00
25084;BME280;13075;55.682;37.564;2022-12-20T14:14:43;99815.19;;;-2.93;100.00
25084;BME280;13075;55.682;37.564;2022-12-20T14:17:26;99803.66;;;-2.90;100.00
25084;BME280;13075;55.682;37.564;2022-12-20T14:20:12;99804.72;;;-2.93;100.00
25084;BME280;13075;55.682;37.564;2022-12-20T14:22:45;99795.84;;;-3.03;100.00
25084;BME280;13075;55.682;37.564;2022-12-20T14:25:17;99806.06;;;-2.87;100.00
25084;BME280;13075;55.682;37.564;2022-12-20T14:27:46;99792.50;;;-3.05;100.00
25084;BME280;13075;55.682;37.564;2022-12-20T14:30:28;99787.13;;;-2.91;100.00